sensor_id;sensor_type;location;lat;lon;timestamp;P1;durP1;ratioP1;P2;durP2;ratioP2
1747;SDS011;871;47.034;15.394;2022-09-03T00:01:08;41.37;;;5.20;;
1747;SDS011;871;47.034;15.394;2022-09-03T00:03:38;41.90;;;5.37;;
1747;SDS011;871;47.034;15.394;2022-09-03T00:11:23;41.00;;;5.57;;
1747;SDS011;871;47.034;15.394;2022-09-03T00:13:51;41.47;;;4.90;;
1747;SDS011;871;47.034;15.394;2022-09-03T00:16:20;42.50;;;5.57;;
1747;SDS011;871;47.034;15.394;2022-09-03T00:18:51;42.13;;;5.90;;
1747;SDS011;871;47.034;15.394;2022-09-03T00:21:24;47.03;;;5.70;;
1747;SDS011;871;47.034;15.394;2022-09-03T00:23:51;43.10;;;6.70;;
1747;SDS011;871;47.034;15.394;2022-09-03T00:26:23;42.57;;;5.73;;
1747;SDS011;871;47.034;15.394;2022-09-03T00:31:47;41.87;;;5.60;;
1747;SDS011;871;47.034;15.394;2022-09-03T00:34:18;41.13;;;5.07;;
1747;SDS011;871;47.034;15.394;2022-09-03T00:36:47;40.90;;;5.83;;
1747;SDS011;871;47.034;15.394;2022-09-03T00:39:17;41.70;;;5.20;;
1747;SDS011;871;47.034;15.394;2022-09-03T00:50:14;41.27;;;6.17;;
1747;SDS011;871;47.034;15.394;2022-09-03T00:55:37;41.10;;;5.90;;
1747;SDS011;871;47.034;15.394;2022-09-03T01:00:37;41.97;;;6.23;;
1747;SDS011;871;47.034;15.394;2022-09-03T01:03:08;41.27;;;5.90;;
1747;SDS011;871;47.034;15.394;2022-09-03T01:08:19;41.87;;;6.37;;
1747;SDS011;871;47.034;15.394;2022-09-03T01:13:19;42.03;;;5.63;;
1747;SDS011;871;47.034;15.394;2022-09-03T01:18:34;40.97;;;5.87;;
1747;SDS011;871;47.034;15.394;2022-09-03T01:26:33;41.83;;;6.47;;
1747;SDS011;871;47.034;15.394;2022-09-03T01:39:32;42.30;;;6.40;;
1747;SDS011;871;47.034;15.394;2022-09-03T01:42:18;41.77;;;5.80;;
1747;SDS011;871;47.034;15.394;2022-09-03T01:57:42;43.30;;;5.80;;
1747;SDS011;871;47.034;15.394;2022-09-03T02:00:15;40.50;;;6.07;;
1747;SDS011;871;47.034;15.394;2022-09-03T02:02:45;41.57;;;5.67;;
1747;SDS011;871;47.034;15.394;2022-09-03T02:07:39;41.60;;;5.97;;
1747;SDS011;871;47.034;15.394;2022-09-03T02:10:08;40.40;;;5.93;;
1747;SDS011;871;47.034;15.394;2022-09-03T02:12:36;40.63;;;5.40;;
1747;SDS011;871;47.034;15.394;2022-09-03T02:15:06;40.73;;;5.87;;
1747;SDS011;871;47.034;15.394;2022-09-03T02:17:32;41.00;;;6.50;;
1747;SDS011;871;47.034;15.394;2022-09-03T02:20:01;42.67;;;6.07;;
1747;SDS011;871;47.034;15.394;2022-09-03T02:22:28;41.23;;;5.80;;
1747;SDS011;871;47.034;15.394;2022-09-03T02:24:54;40.60;;;6.07;;
1747;SDS011;871;47.034;15.394;2022-09-03T02:27:20;40.17;;;5.93;;
1747;SDS011;871;47.034;15.394;2022-09-03T02:29:46;40.00;;;5.10;;
1747;SDS011;871;47.034;15.394;2022-09-03T02:32:12;41.13;;;6.33;;
1747;SDS011;871;47.034;15.394;2022-09-03T02:34:40;43.00;;;6.40;;
1747;SDS011;871;47.034;15.394;2022-09-03T02:37:14;41.70;;;6.50;;
1747;SDS011;871;47.034;15.394;2022-09-03T02:39:41;41.47;;;5.63;;
1747;SDS011;871;47.034;15.394;2022-09-03T02:42:08;42.17;;;6.03;;
1747;SDS011;871;47.034;15.394;2022-09-03T02:44:38;44.17;;;6.13;;
1747;SDS011;871;47.034;15.394;2022-09-03T02:47:06;43.60;;;5.90;;
1747;SDS011;871;47.034;15.394;2022-09-03T02:49:32;40.80;;;6.30;;
1747;SDS011;871;47.034;15.394;2022-09-03T02:51:59;41.37;;;5.83;;
1747;SDS011;871;47.034;15.394;2022-09-03T02:54:26;41.50;;;5.80;;
1747;SDS011;871;47.034;15.394;2022-09-03T02:56:53;42.43;;;6.57;;
1747;SDS011;871;47.034;15.394;2022-09-03T02:59:19;41.67;;;6.40;;
1747;SDS011;871;47.034;15.394;2022-09-03T03:01:46;41.47;;;6.13;;
1747;SDS011;871;47.034;15.394;2022-09-03T03:04:12;42.10;;;5.83;;
1747;SDS011;871;47.034;15.394;2022-09-03T03:06:39;43.20;;;6.83;;
1747;SDS011;871;47.034;15.394;2022-09-03T03:09:05;46.50;;;7.23;;
1747;SDS011;871;47.034;15.394;2022-09-03T03:11:32;42.60;;;5.93;;
1747;SDS011;871;47.034;15.394;2022-09-03T03:14:01;41.27;;;6.50;;
1747;SDS011;871;47.034;15.394;2022-09-03T03:16:27;41.53;;;6.27;;
1747;SDS011;871;47.034;15.394;2022-09-03T03:18:54;42.87;;;6.30;;
1747;SDS011;871;47.034;15.394;2022-09-03T03:21:21;43.10;;;6.70;;
1747;SDS011;871;47.034;15.394;2022-09-03T03:23:47;42.20;;;6.90;;
1747;SDS011;871;47.034;15.394;2022-09-03T03:26:14;42.40;;;7.20;;
1747;SDS011;871;47.034;15.394;2022-09-03T03:28:45;44.20;;;7.33;;
1747;SDS011;871;47.034;15.394;2022-09-03T03:31:14;44.50;;;8.07;;
1747;SDS011;871;47.034;15.394;2022-09-03T03:33:40;41.90;;;6.77;;
1747;SDS011;871;47.034;15.394;2022-09-03T03:36:08;41.97;;;7.10;;
1747;SDS011;871;47.034;15.394;2022-09-03T03:38:35;42.30;;;7.17;;
1747;SDS011;871;47.034;15.394;2022-09-03T03:41:12;44.10;;;7.73;;
1747;SDS011;871;47.034;15.394;2022-09-03T03:43:41;41.63;;;7.20;;
1747;SDS011;871;47.034;15.394;2022-09-03T03:46:07;42.33;;;7.77;;
1747;SDS011;871;47.034;15.394;2022-09-03T03:48:34;43.70;;;7.87;;
1747;SDS011;871;47.034;15.394;2022-09-03T03:51:04;42.20;;;7.90;;
1747;SDS011;871;47.034;15.394;2022-09-03T03:53:31;43.00;;;8.53;;
1747;SDS011;871;47.034;15.394;2022-09-03T03:55:58;40.87;;;7.40;;
1747;SDS011;871;47.034;15.394;2022-09-03T03:58:24;43.07;;;7.57;;
1747;SDS011;871;47.034;15.394;2022-09-03T04:00:51;43.80;;;7.43;;
1747;SDS011;871;47.034;15.394;2022-09-03T04:03:17;41.43;;;6.70;;
1747;SDS011;871;47.034;15.394;2022-09-03T04:05:53;44.03;;;7.60;;
1747;SDS011;871;47.034;15.394;2022-09-03T04:08:20;44.67;;;7.90;;
1747;SDS011;871;47.034;15.394;2022-09-03T04:10:47;42.03;;;7.03;;
1747;SDS011;871;47.034;15.394;2022-09-03T04:13:13;44.00;;;7.27;;
1747;SDS011;871;47.034;15.394;2022-09-03T04:15:39;47.40;;;7.70;;
1747;SDS011;871;47.034;15.394;2022-09-03T04:18:06;42.10;;;7.43;;
1747;SDS011;871;47.034;15.394;2022-09-03T04:20:32;42.60;;;6.70;;
1747;SDS011;871;47.034;15.394;2022-09-03T04:23:01;42.07;;;7.30;;
1747;SDS011;871;47.034;15.394;2022-09-03T04:25:28;41.60;;;6.60;;
1747;SDS011;871;47.034;15.394;2022-09-03T04:27:53;40.80;;;5.90;;
1747;SDS011;871;47.034;15.394;2022-09-03T04:30:20;40.87;;;6.23;;
1747;SDS011;871;47.034;15.394;2022-09-03T04:32:49;43.30;;;7.57;;
1747;SDS011;871;47.034;15.394;2022-09-03T04:35:22;44.00;;;7.00;;
1747;SDS011;871;47.034;15.394;2022-09-03T04:37:49;44.70;;;7.80;;
1747;SDS011;871;47.034;15.394;2022-09-03T04:40:15;44.23;;;7.83;;
1747;SDS011;871;47.034;15.394;2022-09-03T04:42:41;41.60;;;6.50;;
1747;SDS011;871;47.034;15.394;2022-09-03T04:45:08;41.30;;;6.50;;
1747;SDS011;871;47.034;15.394;2022-09-03T04:47:35;43.03;;;7.07;;
1747;SDS011;871;47.034;15.394;2022-09-03T04:50:03;42.70;;;6.67;;
1747;SDS011;871;47.034;15.394;2022-09-03T04:52:29;44.67;;;8.17;;
1747;SDS011;871;47.034;15.394;2022-09-03T04:54:56;43.80;;;6.50;;
1747;SDS011;871;47.034;15.394;2022-09-03T04:57:22;45.00;;;7.93;;
1747;SDS011;871;47.034;15.394;2022-09-03T04:59:48;43.50;;;7.37;;
1747;SDS011;871;47.034;15.394;2022-09-03T05:02:14;43.67;;;8.30;;
1747;SDS011;871;47.034;15.394;2022-09-03T05:04:43;42.00;;;7.93;;
1747;SDS011;871;47.034;15.394;2022-09-03T05:07:11;42.63;;;8.00;;
1747;SDS011;871;47.034;15.394;2022-09-03T05:09:37;44.00;;;9.30;;
1747;SDS011;871;47.034;15.394;2022-09-03T05:12:03;45.33;;;7.70;;
1747;SDS011;871;47.034;15.394;2022-09-03T05:14:29;44.90;;;8.60;;
1747;SDS011;871;47.034;15.394;2022-09-03T05:16:55;44.10;;;8.60;;
1747;SDS011;871;47.034;15.394;2022-09-03T05:19:21;44.13;;;8.60;;
1747;SDS011;871;47.034;15.394;2022-09-03T05:21:47;43.97;;;8.27;;
1747;SDS011;871;47.034;15.394;2022-09-03T05:24:13;46.50;;;8.60;;
1747;SDS011;871;47.034;15.394;2022-09-03T05:26:39;44.30;;;9.13;;
1747;SDS011;871;47.034;15.394;2022-09-03T05:29:06;42.83;;;8.00;;
1747;SDS011;871;47.034;15.394;2022-09-03T05:31:33;43.77;;;8.13;;
1747;SDS011;871;47.034;15.394;2022-09-03T05:34:01;45.20;;;7.70;;
1747;SDS011;871;47.034;15.394;2022-09-03T05:36:29;42.97;;;6.97;;
1747;SDS011;871;47.034;15.394;2022-09-03T05:38:56;43.30;;;7.73;;
1747;SDS011;871;47.034;15.394;2022-09-03T05:41:22;45.43;;;9.80;;
1747;SDS011;871;47.034;15.394;2022-09-03T05:43:49;45.83;;;8.53;;
1747;SDS011;871;47.034;15.394;2022-09-03T05:46:24;42.07;;;6.90;;
1747;SDS011;871;47.034;15.394;2022-09-03T05:48:55;42.07;;;7.17;;
1747;SDS011;871;47.034;15.394;2022-09-03T05:51:21;41.97;;;7.37;;
1747;SDS011;871;47.034;15.394;2022-09-03T05:53:47;42.60;;;7.70;;
1747;SDS011;871;47.034;15.394;2022-09-03T05:56:18;43.87;;;7.83;;
1747;SDS011;871;47.034;15.394;2022-09-03T05:58:48;48.73;;;9.07;;
1747;SDS011;871;47.034;15.394;2022-09-03T06:03:44;43.27;;;7.60;;
1747;SDS011;871;47.034;15.394;2022-09-03T06:06:12;43.37;;;7.13;;
1747;SDS011;871;47.034;15.394;2022-09-03T06:08:38;43.40;;;7.63;;
1747;SDS011;871;47.034;15.394;2022-09-03T06:11:06;45.00;;;8.03;;
1747;SDS011;871;47.034;15.394;2022-09-03T06:13:32;43.80;;;7.73;;
1747;SDS011;871;47.034;15.394;2022-09-03T06:15:59;46.07;;;7.70;;
1747;SDS011;871;47.034;15.394;2022-09-03T06:18:26;43.13;;;7.33;;
1747;SDS011;871;47.034;15.394;2022-09-03T06:20:56;42.43;;;6.27;;
1747;SDS011;871;47.034;15.394;2022-09-03T06:23:39;43.70;;;7.13;;
1747;SDS011;871;47.034;15.394;2022-09-03T06:26:12;45.37;;;6.90;;
1747;SDS011;871;47.034;15.394;2022-09-03T06:28:40;43.53;;;5.50;;
1747;SDS011;871;47.034;15.394;2022-09-03T06:31:11;44.00;;;5.83;;
1747;SDS011;871;47.034;15.394;2022-09-03T06:33:38;41.73;;;5.93;;
1747;SDS011;871;47.034;15.394;2022-09-03T06:36:06;43.60;;;5.77;;
1747;SDS011;871;47.034;15.394;2022-09-03T06:38:33;44.67;;;5.80;;
1747;SDS011;871;47.034;15.394;2022-09-03T06:41:00;42.87;;;5.67;;
1747;SDS011;871;47.034;15.394;2022-09-03T06:43:27;43.57;;;5.90;;
1747;SDS011;871;47.034;15.394;2022-09-03T06:45:58;41.80;;;5.43;;
1747;SDS011;871;47.034;15.394;2022-09-03T06:48:25;42.30;;;6.13;;
1747;SDS011;871;47.034;15.394;2022-09-03T06:50:52;41.97;;;6.07;;
1747;SDS011;871;47.034;15.394;2022-09-03T06:53:18;43.40;;;5.80;;
1747;SDS011;871;47.034;15.394;2022-09-03T06:55:51;42.10;;;5.37;;
1747;SDS011;871;47.034;15.394;2022-09-03T06:58:17;44.40;;;5.83;;
1747;SDS011;871;47.034;15.394;2022-09-03T07:00:45;42.90;;;5.90;;
1747;SDS011;871;47.034;15.394;2022-09-03T07:03:11;44.00;;;6.13;;
1747;SDS011;871;47.034;15.394;2022-09-03T07:05:37;45.40;;;6.37;;
1747;SDS011;871;47.034;15.394;2022-09-03T07:08:03;45.03;;;4.87;;
1747;SDS011;871;47.034;15.394;2022-09-03T07:10:29;41.97;;;5.60;;
1747;SDS011;871;47.034;15.394;2022-09-03T07:12:55;41.40;;;5.30;;
1747;SDS011;871;47.034;15.394;2022-09-03T07:15:23;42.60;;;4.80;;
1747;SDS011;871;47.034;15.394;2022-09-03T07:17:50;42.03;;;5.53;;
1747;SDS011;871;47.034;15.394;2022-09-03T07:20:17;48.53;;;5.17;;
1747;SDS011;871;47.034;15.394;2022-09-03T07:22:45;44.57;;;5.43;;
1747;SDS011;871;47.034;15.394;2022-09-03T07:25:11;45.30;;;5.27;;
1747;SDS011;871;47.034;15.394;2022-09-03T07:27:37;41.27;;;4.77;;
1747;SDS011;871;47.034;15.394;2022-09-03T07:30:03;41.47;;;4.80;;
1747;SDS011;871;47.034;15.394;2022-09-03T07:32:33;43.70;;;4.90;;
1747;SDS011;871;47.034;15.394;2022-09-03T07:35:01;42.07;;;4.47;;
1747;SDS011;871;47.034;15.394;2022-09-03T07:37:27;42.90;;;4.50;;
1747;SDS011;871;47.034;15.394;2022-09-03T07:39:53;44.40;;;4.70;;
1747;SDS011;871;47.034;15.394;2022-09-03T07:42:19;43.20;;;5.47;;
1747;SDS011;871;47.034;15.394;2022-09-03T07:44:45;42.50;;;4.83;;
1747;SDS011;871;47.034;15.394;2022-09-03T07:47:11;44.13;;;5.30;;
1747;SDS011;871;47.034;15.394;2022-09-03T07:49:39;42.40;;;5.30;;
1747;SDS011;871;47.034;15.394;2022-09-03T07:52:05;42.87;;;5.33;;
1747;SDS011;871;47.034;15.394;2022-09-03T07:54:31;43.60;;;5.80;;
1747;SDS011;871;47.034;15.394;2022-09-03T07:56:57;42.10;;;4.80;;
1747;SDS011;871;47.034;15.394;2022-09-03T07:59:23;42.10;;;4.10;;
1747;SDS011;871;47.034;15.394;2022-09-03T08:01:50;43.30;;;5.23;;
1747;SDS011;871;47.034;15.394;2022-09-03T08:04:17;42.07;;;5.10;;
1747;SDS011;871;47.034;15.394;2022-09-03T08:06:43;41.90;;;4.80;;
1747;SDS011;871;47.034;15.394;2022-09-03T08:09:10;42.37;;;5.00;;
1747;SDS011;871;47.034;15.394;2022-09-03T08:11:38;43.80;;;5.37;;
1747;SDS011;871;47.034;15.394;2022-09-03T08:14:07;42.40;;;5.53;;
1747;SDS011;871;47.034;15.394;2022-09-03T08:16:36;45.00;;;5.50;;
1747;SDS011;871;47.034;15.394;2022-09-03T08:19:03;46.17;;;5.90;;
1747;SDS011;871;47.034;15.394;2022-09-03T08:21:30;47.33;;;6.60;;
1747;SDS011;871;47.034;15.394;2022-09-03T08:23:56;43.77;;;5.93;;
1747;SDS011;871;47.034;15.394;2022-09-03T08:26:32;44.77;;;4.50;;
1747;SDS011;871;47.034;15.394;2022-09-03T08:28:59;44.57;;;4.70;;
1747;SDS011;871;47.034;15.394;2022-09-03T08:31:26;42.13;;;4.20;;
1747;SDS011;871;47.034;15.394;2022-09-03T08:33:53;43.17;;;5.03;;
1747;SDS011;871;47.034;15.394;2022-09-03T08:36:20;43.97;;;5.27;;
1747;SDS011;871;47.034;15.394;2022-09-03T08:38:47;43.17;;;5.00;;
1747;SDS011;871;47.034;15.394;2022-09-03T08:46:30;44.57;;;6.03;;
1747;SDS011;871;47.034;15.394;2022-09-03T08:48:58;43.73;;;5.30;;
1747;SDS011;871;47.034;15.394;2022-09-03T08:51:25;43.40;;;4.73;;
1747;SDS011;871;47.034;15.394;2022-09-03T08:53:52;44.80;;;5.30;;
1747;SDS011;871;47.034;15.394;2022-09-03T08:56:28;43.57;;;5.03;;
1747;SDS011;871;47.034;15.394;2022-09-03T08:58:55;43.70;;;5.20;;
1747;SDS011;871;47.034;15.394;2022-09-03T09:09:17;42.57;;;4.70;;
1747;SDS011;871;47.034;15.394;2022-09-03T09:12:00;43.93;;;4.97;;
1747;SDS011;871;47.034;15.394;2022-09-03T09:19:39;42.13;;;4.80;;
1747;SDS011;871;47.034;15.394;2022-09-03T09:22:09;43.53;;;5.60;;
1747;SDS011;871;47.034;15.394;2022-09-03T09:24:38;43.60;;;5.30;;
1747;SDS011;871;47.034;15.394;2022-09-03T09:27:06;43.40;;;5.70;;
1747;SDS011;871;47.034;15.394;2022-09-03T09:29:37;43.53;;;5.20;;
1747;SDS011;871;47.034;15.394;2022-09-03T09:32:03;42.30;;;4.80;;
1747;SDS011;871;47.034;15.394;2022-09-03T09:34:35;42.80;;;5.10;;
1747;SDS011;871;47.034;15.394;2022-09-03T09:37:03;42.37;;;4.90;;
1747;SDS011;871;47.034;15.394;2022-09-03T09:39:30;42.80;;;4.90;;
1747;SDS011;871;47.034;15.394;2022-09-03T09:41:58;43.17;;;4.90;;
1747;SDS011;871;47.034;15.394;2022-09-03T09:44:24;43.50;;;5.23;;
1747;SDS011;871;47.034;15.394;2022-09-03T09:47:00;42.27;;;4.47;;
1747;SDS011;871;47.034;15.394;2022-09-03T09:49:31;44.83;;;5.70;;
1747;SDS011;871;47.034;15.394;2022-09-03T09:52:04;41.57;;;4.33;;
1747;SDS011;871;47.034;15.394;2022-09-03T09:54:31;43.10;;;5.17;;
1747;SDS011;871;47.034;15.394;2022-09-03T09:57:02;42.70;;;4.80;;
1747;SDS011;871;47.034;15.394;2022-09-03T09:59:29;42.47;;;5.20;;
1747;SDS011;871;47.034;15.394;2022-09-03T10:02:02;43.00;;;5.00;;
1747;SDS011;871;47.034;15.394;2022-09-03T10:04:29;42.10;;;4.90;;
1747;SDS011;871;47.034;15.394;2022-09-03T10:09:43;42.90;;;4.73;;
1747;SDS011;871;47.034;15.394;2022-09-03T10:12:13;42.50;;;5.27;;
1747;SDS011;871;47.034;15.394;2022-09-03T10:20:08;42.77;;;5.43;;
1747;SDS011;871;47.034;15.394;2022-09-03T10:25:33;43.07;;;4.90;;
1747;SDS011;871;47.034;15.394;2022-09-03T10:28:03;44.30;;;5.70;;
1747;SDS011;871;47.034;15.394;2022-09-03T10:30:29;42.57;;;5.30;;
1747;SDS011;871;47.034;15.394;2022-09-03T10:33:12;43.30;;;4.40;;
1747;SDS011;871;47.034;15.394;2022-09-03T10:35:42;42.77;;;4.90;;
1747;SDS011;871;47.034;15.394;2022-09-03T10:46:26;42.03;;;4.90;;
1747;SDS011;871;47.034;15.394;2022-09-03T10:48:57;43.03;;;5.33;;
1747;SDS011;871;47.034;15.394;2022-09-03T10:51:34;43.50;;;5.40;;
1747;SDS011;871;47.034;15.394;2022-09-03T10:56:43;42.10;;;4.63;;
1747;SDS011;871;47.034;15.394;2022-09-03T10:59:23;42.97;;;5.03;;
1747;SDS011;871;47.034;15.394;2022-09-03T11:07:06;43.40;;;4.73;;
1747;SDS011;871;47.034;15.394;2022-09-03T11:12:07;42.80;;;5.00;;
1747;SDS011;871;47.034;15.394;2022-09-03T11:14:43;43.30;;;5.50;;
1747;SDS011;871;47.034;15.394;2022-09-03T11:17:21;42.50;;;5.87;;
1747;SDS011;871;47.034;15.394;2022-09-03T11:19:53;42.27;;;5.03;;
1747;SDS011;871;47.034;15.394;2022-09-03T11:22:22;43.30;;;4.87;;
1747;SDS011;871;47.034;15.394;2022-09-03T11:24:52;42.70;;;5.20;;
1747;SDS011;871;47.034;15.394;2022-09-03T11:30:05;46.20;;;5.17;;
1747;SDS011;871;47.034;15.394;2022-09-03T11:37:49;42.63;;;4.67;;
1747;SDS011;871;47.034;15.394;2022-09-03T11:40:18;42.67;;;5.60;;
1747;SDS011;871;47.034;15.394;2022-09-03T11:42:45;43.03;;;5.17;;
1747;SDS011;871;47.034;15.394;2022-09-03T11:47:56;42.93;;;5.40;;
1747;SDS011;871;47.034;15.394;2022-09-03T11:52:50;43.40;;;4.43;;
1747;SDS011;871;47.034;15.394;2022-09-03T11:55:27;44.13;;;5.20;;
1747;SDS011;871;47.034;15.394;2022-09-03T11:57:54;42.60;;;4.53;;
1747;SDS011;871;47.034;15.394;2022-09-03T12:00:22;43.13;;;5.20;;
1747;SDS011;871;47.034;15.394;2022-09-03T12:03:00;43.17;;;5.33;;
1747;SDS011;871;47.034;15.394;2022-09-03T12:05:41;41.90;;;4.80;;
1747;SDS011;871;47.034;15.394;2022-09-03T12:18:28;42.27;;;4.27;;
1747;SDS011;871;47.034;15.394;2022-09-03T12:25:58;42.50;;;5.00;;
1747;SDS011;871;47.034;15.394;2022-09-03T12:28:27;41.67;;;3.90;;
1747;SDS011;871;47.034;15.394;2022-09-03T12:31:04;41.07;;;3.87;;
1747;SDS011;871;47.034;15.394;2022-09-03T12:33:30;42.73;;;4.47;;
1747;SDS011;871;47.034;15.394;2022-09-03T12:35:57;43.40;;;4.73;;
1747;SDS011;871;47.034;15.394;2022-09-03T12:38:24;41.57;;;4.20;;
1747;SDS011;871;47.034;15.394;2022-09-03T12:40:50;41.50;;;3.80;;
1747;SDS011;871;47.034;15.394;2022-09-03T12:43:19;42.20;;;4.70;;
1747;SDS011;871;47.034;15.394;2022-09-03T12:45:46;42.30;;;4.53;;
1747;SDS011;871;47.034;15.394;2022-09-03T12:48:16;42.27;;;4.67;;
1747;SDS011;871;47.034;15.394;2022-09-03T12:50:43;42.73;;;4.60;;
1747;SDS011;871;47.034;15.394;2022-09-03T12:53:10;42.53;;;4.20;;
1747;SDS011;871;47.034;15.394;2022-09-03T12:55:51;41.47;;;4.57;;
1747;SDS011;871;47.034;15.394;2022-09-03T12:59:21;41.70;;;4.07;;
1747;SDS011;871;47.034;15.394;2022-09-03T13:01:20;42.27;;;4.47;;
1747;SDS011;871;47.034;15.394;2022-09-03T13:03:49;42.20;;;4.37;;
1747;SDS011;871;47.034;15.394;2022-09-03T13:06:21;42.40;;;4.23;;
1747;SDS011;871;47.034;15.394;2022-09-03T13:11:24;42.43;;;4.50;;
1747;SDS011;871;47.034;15.394;2022-09-03T13:14:00;42.93;;;4.93;;
1747;SDS011;871;47.034;15.394;2022-09-03T13:32:31;43.43;;;5.07;;
1747;SDS011;871;47.034;15.394;2022-09-03T13:34:35;43.40;;;4.30;;
1747;SDS011;871;47.034;15.394;2022-09-03T13:39:41;43.10;;;4.63;;
1747;SDS011;871;47.034;15.394;2022-09-03T13:42:17;42.17;;;4.67;;
1747;SDS011;871;47.034;15.394;2022-09-03T13:44:54;41.93;;;4.30;;
1747;SDS011;871;47.034;15.394;2022-09-03T13:49:52;43.00;;;4.60;;
1747;SDS011;871;47.034;15.394;2022-09-03T13:52:49;41.80;;;4.53;;
1747;SDS011;871;47.034;15.394;2022-09-03T14:00:12;41.00;;;3.60;;
1747;SDS011;871;47.034;15.394;2022-09-03T14:03:02;43.17;;;4.77;;
1747;SDS011;871;47.034;15.394;2022-09-03T14:08:03;42.27;;;4.17;;
1747;SDS011;871;47.034;15.394;2022-09-03T14:16:13;42.53;;;4.30;;
1747;SDS011;871;47.034;15.394;2022-09-03T14:18:55;42.13;;;4.40;;
1747;SDS011;871;47.034;15.394;2022-09-03T14:24:00;42.47;;;4.40;;
1747;SDS011;871;47.034;15.394;2022-09-03T14:26:33;41.53;;;4.20;;
1747;SDS011;871;47.034;15.394;2022-09-03T14:31:41;41.57;;;3.90;;
1747;SDS011;871;47.034;15.394;2022-09-03T14:37:03;42.57;;;4.00;;
1747;SDS011;871;47.034;15.394;2022-09-03T14:45:12;42.17;;;4.60;;
1747;SDS011;871;47.034;15.394;2022-09-03T14:53:22;41.73;;;4.20;;
1747;SDS011;871;47.034;15.394;2022-09-03T14:56:02;41.50;;;3.50;;
1747;SDS011;871;47.034;15.394;2022-09-03T15:01:04;44.00;;;3.85;;
1747;SDS011;871;47.034;15.394;2022-09-03T15:09:06;42.30;;;4.40;;
1747;SDS011;871;47.034;15.394;2022-09-03T15:11:42;43.23;;;3.90;;
1747;SDS011;871;47.034;15.394;2022-09-03T15:14:17;42.17;;;4.27;;
1747;SDS011;871;47.034;15.394;2022-09-03T15:17:04;42.37;;;4.33;;
1747;SDS011;871;47.034;15.394;2022-09-03T15:30:42;42.80;;;4.20;;
1747;SDS011;871;47.034;15.394;2022-09-03T15:33:19;42.77;;;4.97;;
1747;SDS011;871;47.034;15.394;2022-09-03T15:36:06;41.37;;;3.90;;
1747;SDS011;871;47.034;15.394;2022-09-03T15:38:45;42.87;;;4.20;;
1747;SDS011;871;47.034;15.394;2022-09-03T15:41:30;42.23;;;4.30;;
1747;SDS011;871;47.034;15.394;2022-09-03T15:43:59;42.93;;;3.90;;
1747;SDS011;871;47.034;15.394;2022-09-03T15:49:22;41.43;;;3.90;;
1747;SDS011;871;47.034;15.394;2022-09-03T16:02:31;42.47;;;4.53;;
1747;SDS011;871;47.034;15.394;2022-09-03T16:05:18;41.90;;;4.27;;
1747;SDS011;871;47.034;15.394;2022-09-03T16:10:15;41.87;;;4.40;;
1747;SDS011;871;47.034;15.394;2022-09-03T16:15:42;41.60;;;4.13;;
1747;SDS011;871;47.034;15.394;2022-09-03T16:18:24;44.70;;;5.40;;
1747;SDS011;871;47.034;15.394;2022-09-03T16:20:59;43.07;;;4.10;;
1747;SDS011;871;47.034;15.394;2022-09-03T16:23:46;41.40;;;3.60;;
1747;SDS011;871;47.034;15.394;2022-09-03T16:26:19;42.20;;;4.40;;
1747;SDS011;871;47.034;15.394;2022-09-03T16:28:53;41.60;;;3.93;;
1747;SDS011;871;47.034;15.394;2022-09-03T16:42:12;41.00;;;3.93;;
1747;SDS011;871;47.034;15.394;2022-09-03T16:49:37;43.70;;;4.70;;
1747;SDS011;871;47.034;15.394;2022-09-03T16:52:16;41.80;;;4.30;;
1747;SDS011;871;47.034;15.394;2022-09-03T16:54:54;41.93;;;4.13;;
1747;SDS011;871;47.034;15.394;2022-09-03T17:26:04;42.57;;;4.60;;
1747;SDS011;871;47.034;15.394;2022-09-03T17:28:42;41.67;;;4.33;;
1747;SDS011;871;47.034;15.394;2022-09-03T17:36:22;43.13;;;4.47;;
1747;SDS011;871;47.034;15.394;2022-09-03T17:38:58;41.90;;;4.83;;
1747;SDS011;871;47.034;15.394;2022-09-03T17:46:50;42.63;;;4.87;;
1747;SDS011;871;47.034;15.394;2022-09-03T17:49:22;42.87;;;4.73;;
1747;SDS011;871;47.034;15.394;2022-09-03T17:51:57;42.90;;;4.60;;
1747;SDS011;871;47.034;15.394;2022-09-03T17:54:42;42.40;;;4.40;;
1747;SDS011;871;47.034;15.394;2022-09-03T18:02:22;43.77;;;5.00;;
1747;SDS011;871;47.034;15.394;2022-09-03T18:04:52;43.07;;;4.83;;
1747;SDS011;871;47.034;15.394;2022-09-03T18:07:22;41.77;;;4.40;;
1747;SDS011;871;47.034;15.394;2022-09-03T18:10:07;42.90;;;4.93;;
1747;SDS011;871;47.034;15.394;2022-09-03T18:12:53;41.50;;;4.30;;
1747;SDS011;871;47.034;15.394;2022-09-03T18:15:24;43.97;;;4.90;;
1747;SDS011;871;47.034;15.394;2022-09-03T18:17:53;42.30;;;4.80;;
1747;SDS011;871;47.034;15.394;2022-09-03T18:20:22;43.13;;;5.33;;
1747;SDS011;871;47.034;15.394;2022-09-03T18:26:06;41.57;;;4.70;;
1747;SDS011;871;47.034;15.394;2022-09-03T18:28:57;45.73;;;4.30;;
1747;SDS011;871;47.034;15.394;2022-09-03T18:31:44;43.13;;;5.70;;
1747;SDS011;871;47.034;15.394;2022-09-03T18:34:30;44.73;;;6.00;;
1747;SDS011;871;47.034;15.394;2022-09-03T18:37:16;43.13;;;5.80;;
1747;SDS011;871;47.034;15.394;2022-09-03T18:40:02;42.97;;;5.10;;
1747;SDS011;871;47.034;15.394;2022-09-03T18:42:54;42.07;;;4.87;;
1747;SDS011;871;47.034;15.394;2022-09-03T18:45:45;43.10;;;4.80;;
1747;SDS011;871;47.034;15.394;2022-09-03T18:57:35;42.77;;;5.53;;
1747;SDS011;871;47.034;15.394;2022-09-03T19:00:22;43.60;;;5.33;;
1747;SDS011;871;47.034;15.394;2022-09-03T19:03:21;43.00;;;5.53;;
1747;SDS011;871;47.034;15.394;2022-09-03T19:15:08;42.57;;;5.60;;
1747;SDS011;871;47.034;15.394;2022-09-03T19:23:58;41.80;;;4.53;;
1747;SDS011;871;47.034;15.394;2022-09-03T19:32:45;42.80;;;5.37;;
1747;SDS011;871;47.034;15.394;2022-09-03T19:35:45;43.73;;;5.77;;
1747;SDS011;871;47.034;15.394;2022-09-03T19:38:39;44.17;;;5.60;;
1747;SDS011;871;47.034;15.394;2022-09-03T19:41:31;43.57;;;5.60;;
1747;SDS011;871;47.034;15.394;2022-09-03T19:45:02;42.80;;;5.73;;
1747;SDS011;871;47.034;15.394;2022-09-03T19:50:26;42.67;;;6.33;;
1747;SDS011;871;47.034;15.394;2022-09-03T19:53:14;42.90;;;5.90;;
1747;SDS011;871;47.034;15.394;2022-09-03T19:56:02;42.60;;;5.70;;
1747;SDS011;871;47.034;15.394;2022-09-03T19:59:11;42.23;;;5.17;;
1747;SDS011;871;47.034;15.394;2022-09-03T20:01:53;45.70;;;6.03;;
1747;SDS011;871;47.034;15.394;2022-09-03T20:04:40;44.07;;;6.43;;
1747;SDS011;871;47.034;15.394;2022-09-03T20:07:27;47.80;;;5.90;;
1747;SDS011;871;47.034;15.394;2022-09-03T20:10:13;43.17;;;5.90;;
1747;SDS011;871;47.034;15.394;2022-09-03T20:13:19;43.63;;;5.50;;
1747;SDS011;871;47.034;15.394;2022-09-03T20:22:11;42.40;;;4.93;;
1747;SDS011;871;47.034;15.394;2022-09-03T20:37:52;48.23;;;5.40;;
1747;SDS011;871;47.034;15.394;2022-09-03T20:40:34;41.80;;;4.67;;
1747;SDS011;871;47.034;15.394;2022-09-03T20:45:47;41.97;;;4.70;;
1747;SDS011;871;47.034;15.394;2022-09-03T20:48:26;42.43;;;4.67;;
1747;SDS011;871;47.034;15.394;2022-09-03T20:54:03;42.97;;;5.63;;
1747;SDS011;871;47.034;15.394;2022-09-03T20:56:44;42.20;;;5.60;;
1747;SDS011;871;47.034;15.394;2022-09-03T21:01:45;43.70;;;5.77;;
1747;SDS011;871;47.034;15.394;2022-09-03T21:25:24;42.30;;;5.70;;
1747;SDS011;871;47.034;15.394;2022-09-03T21:27:54;42.43;;;5.90;;
1747;SDS011;871;47.034;15.394;2022-09-03T21:30:21;44.73;;;5.77;;
1747;SDS011;871;47.034;15.394;2022-09-03T21:32:51;42.90;;;5.70;;
1747;SDS011;871;47.034;15.394;2022-09-03T21:37:49;44.70;;;5.50;;
1747;SDS011;871;47.034;15.394;2022-09-03T21:40:17;41.40;;;5.47;;
1747;SDS011;871;47.034;15.394;2022-09-03T21:42:51;42.30;;;5.57;;
1747;SDS011;871;47.034;15.394;2022-09-03T21:45:21;43.10;;;5.90;;
1747;SDS011;871;47.034;15.394;2022-09-03T21:47:52;42.50;;;5.77;;